Aktuální počasí v Česku a ve světě - METAR

Seznam meteostanic umístěných nejčasteji na letišti v ČR a ve světě

Vyhledat místa podle abecedy:
A B C D E F G H I J K L M N O P Q R S T U V W X Y Z

Filtrovat:

ID stanice:
a/nebo
Název místa (fulltext):
 
Místo (ID)Naposledy načteno 
Vagar (EKVG) 05.03.2021 09:50 UTC Zobrazit METAR
EKVG 050950Z AUTO 26008KT 9999 OVC027/// 04/M00 Q1030
Valencia (LEVC) 05.03.2021 10:00 UTC Zobrazit METAR
LEVC 051000Z 00000KT CAVOK 14/09 Q1019 NOSIG
Varna (LBWN) 05.03.2021 10:00 UTC Zobrazit METAR
LBWN 051000Z 27012KT 240V300 CAVOK 18/M01 Q1013 NOSIG
Verona (LIPX) 05.03.2021 09:50 UTC Zobrazit METAR
LIPX 050950Z 20004KT 170V240 3500 BR FEW050 11/05 Q1016
Vienna (LOWW) 05.03.2021 09:50 UTC Zobrazit METAR
LOWW 050950Z 33012KT 9999 -RA FEW008 BKN013 03/01 Q1018 NOSIG
Vientiane (VLVT) 05.03.2021 10:00 UTC Zobrazit METAR
VLVT 051000Z 06004KT 8000 FEW020 FEW200 34/21 Q1007 NOSIG
Vieuxfort (TLPL) 05.03.2021 10:00 UTC Zobrazit METAR
TLPL 051000Z 09015KT 9999 SCT025 26/22 Q1014 NOSIG
Vilnius (EYVI) 05.03.2021 09:50 UTC Zobrazit METAR
EYVI 050950Z 34011KT 9999 SCT032 M01/M10 Q1015 R01/2///95 NOSIG
Vitebsk (UMII) Zatím nenačteno  
Volgograd (URWW) Zatím nenačteno  
Voronezh (UUOO) Zatím nenačteno  
Reklama

Reklama


Počasí na Váš email

Emaily jsou bez reklamy a bez spamu



Odhlásit newsletter



Další české internetové stránky (nejen) o počasí najdete v katalogu TOPlist - weby o počasí nebo vyhledejte na internetu, co jste tu na 🌞 Slunečnu ⛅ zatím nenašli:
⭐ Přidat Slunečno.cz do oblíbených | 🏠 Nastavit Slunečno.cz jako HOMEPAGE

⬆️ Posunout stránku nahoru ⬆️
Reklama